createdAt,value
2022-12-24T00:00:10.122Z,59.02
2022-12-24T00:05:13.715Z,59.33
2022-12-24T00:10:20.054Z,59.73
2022-12-24T00:15:23.421Z,60.07
2022-12-24T00:20:26.636Z,59.44
2022-12-24T00:25:29.765Z,59.16
2022-12-24T00:30:33.003Z,59.21
2022-12-24T00:35:37.932Z,59.98
2022-12-24T00:40:41.542Z,60.22
2022-12-24T00:45:44.855Z,60.33
2022-12-24T00:50:47.993Z,59.89
2022-12-24T00:55:51.243Z,60.32
2022-12-24T01:00:54.314Z,60.19
2022-12-24T01:05:57.450Z,60.51
2022-12-24T01:11:02.381Z,60.91
2022-12-24T01:16:17.714Z,61.18
2022-12-24T01:21:21.175Z,61.62
2022-12-24T01:26:25.026Z,61.75
2022-12-24T01:31:28.159Z,61.38
2022-12-24T01:36:31.168Z,61.12
2022-12-24T01:41:34.484Z,61.66
2022-12-24T01:46:38.041Z,62.12
2022-12-24T01:51:48.001Z,62.40
2022-12-24T01:57:00.610Z,62.73
2022-12-24T02:02:04.843Z,62.79
2022-12-24T02:07:08.523Z,63.08
2022-12-24T02:12:11.935Z,63.10
2022-12-24T02:17:36.665Z,63.22
2022-12-24T02:23:01.631Z,63.51
2022-12-24T02:28:21.680Z,63.85
2022-12-24T02:33:42.863Z,64.09
2022-12-24T02:38:54.063Z,64.21
2022-12-24T02:43:58.752Z,64.65
2022-12-24T02:49:02.858Z,64.61
2022-12-24T02:54:06.618Z,65.27
2022-12-24T02:59:46.101Z,65.05
2022-12-24T03:04:56.779Z,65.18
2022-12-24T03:10:12.009Z,65.52
2022-12-24T03:15:19.145Z,65.92
2022-12-24T03:20:28.450Z,66.03
2022-12-24T03:25:34.059Z,66.35
2022-12-24T03:30:41.480Z,66.48
2022-12-24T03:35:45.711Z,66.26
2022-12-24T03:40:49.175Z,66.63
2022-12-24T03:45:53.112Z,66.47
2022-12-24T03:50:56.575Z,66.68
2022-12-24T03:55:59.935Z,67.06
2022-12-24T04:01:03.303Z,66.46
2022-12-24T04:06:10.011Z,67.04
2022-12-24T04:11:16.359Z,67.49
2022-12-24T04:16:20.001Z,67.44
2022-12-24T04:21:23.704Z,67.87
2022-12-24T04:26:27.250Z,68.42
2022-12-24T04:31:30.819Z,68.13
2022-12-24T04:36:35.247Z,68.51
2022-12-24T04:41:38.629Z,68.62
2022-12-24T04:46:41.810Z,68.55
2022-12-24T04:51:46.042Z,68.30
2022-12-24T04:56:50.263Z,68.33
2022-12-24T05:01:54.080Z,68.80
2022-12-24T05:06:57.807Z,68.88
2022-12-24T05:12:04.959Z,69.16
2022-12-24T05:17:08.628Z,69.28
2022-12-24T05:22:13.955Z,69.64
2022-12-24T05:27:17.437Z,69.15
2022-12-24T05:32:21.914Z,69.44
2022-12-24T05:37:25.526Z,69.48
2022-12-24T05:42:28.833Z,69.21
2022-12-24T05:47:32.141Z,68.52
2022-12-24T05:52:35.591Z,69.00
2022-12-24T05:57:41.479Z,69.17
2022-12-24T06:02:45.099Z,68.78
2022-12-24T06:07:50.305Z,68.97
2022-12-24T06:12:53.830Z,69.23
2022-12-24T06:17:57.327Z,69.15
2022-12-24T06:23:00.950Z,68.76
2022-12-24T06:28:04.852Z,68.99
2022-12-24T06:33:09.343Z,68.67
2022-12-24T06:38:13.889Z,68.48
2022-12-24T06:43:17.576Z,68.84
2022-12-24T06:48:21.336Z,68.48
2022-12-24T06:53:24.889Z,68.41
2022-12-24T06:58:28.376Z,68.50
2022-12-24T07:03:32.468Z,68.50
2022-12-24T07:08:36.298Z,67.94
2022-12-24T07:13:41.136Z,67.95
2022-12-24T07:18:45.020Z,67.78
2022-12-24T07:23:49.349Z,67.43
2022-12-24T07:28:53.048Z,67.29
2022-12-24T07:33:56.499Z,66.95
2022-12-24T07:39:00.025Z,67.06
2022-12-24T07:44:03.776Z,66.96
2022-12-24T07:49:07.727Z,66.92
2022-12-24T07:54:11.426Z,66.61
2022-12-24T07:59:15.104Z,66.69
2022-12-24T08:04:18.598Z,66.21
2022-12-24T08:09:21.965Z,65.85
2022-12-24T08:14:25.471Z,65.36
2022-12-24T08:19:28.924Z,65.48
2022-12-24T08:24:32.306Z,65.34
2022-12-24T08:29:42.823Z,65.65
2022-12-24T08:34:46.957Z,65.72
2022-12-24T08:39:50.261Z,66.04
2022-12-24T08:44:53.769Z,65.81
2022-12-24T08:49:57.300Z,65.92
2022-12-24T08:55:00.961Z,65.62
2022-12-24T09:00:08.362Z,65.65
2022-12-24T09:05:12.018Z,65.27
2022-12-24T09:10:15.721Z,64.15
2022-12-24T09:15:19.867Z,63.31
2022-12-24T09:20:23.383Z,62.70
2022-12-24T09:25:27.150Z,62.22
2022-12-24T09:30:33.869Z,62.49
2022-12-24T09:35:40.277Z,62.23
2022-12-24T09:40:44.780Z,61.93
2022-12-24T09:45:51.782Z,61.60
2022-12-24T09:51:12.882Z,61.07
2022-12-24T09:56:23.027Z,61.24
2022-12-24T10:01:29.512Z,61.37
2022-12-24T10:07:11.280Z,61.10
2022-12-24T10:12:23.432Z,61.36
2022-12-24T10:18:06.723Z,61.25
2022-12-24T10:23:43.776Z,61.08
2022-12-24T10:29:07.412Z,60.69
2022-12-24T10:34:22.815Z,60.65
2022-12-24T10:39:27.414Z,61.08
2022-12-24T10:44:34.299Z,61.13
2022-12-24T10:49:56.507Z,61.12
2022-12-24T10:55:18.326Z,61.36
2022-12-24T11:00:29.962Z,61.80
2022-12-24T11:05:39.818Z,61.67
2022-12-24T11:11:02.761Z,61.51
2022-12-24T11:16:08.657Z,61.36
2022-12-24T11:21:18.906Z,60.70
2022-12-24T11:26:24.778Z,60.70
2022-12-24T11:31:28.193Z,60.68
2022-12-24T11:36:32.405Z,60.66
2022-12-24T11:41:39.967Z,60.68
2022-12-24T11:46:44.481Z,60.52
2022-12-24T11:52:01.330Z,60.60
2022-12-24T11:57:05.850Z,60.67
2022-12-24T12:02:38.998Z,61.05
2022-12-24T12:07:43.341Z,60.81
2022-12-24T12:12:53.397Z,60.91
2022-12-24T12:18:16.752Z,60.74
2022-12-24T12:23:41.291Z,60.88
2022-12-24T12:29:11.246Z,61.64
2022-12-24T12:34:24.039Z,62.35
2022-12-24T12:39:27.737Z,62.71
2022-12-24T12:45:10.049Z,63.08
2022-12-24T12:50:27.606Z,63.38
2022-12-24T12:55:55.815Z,64.00
2022-12-24T13:01:33.176Z,64.26
2022-12-24T13:07:19.735Z,64.22
2022-12-24T13:12:40.903Z,64.43
2022-12-24T13:18:05.671Z,64.59
2022-12-24T13:23:20.092Z,64.70
2022-12-24T13:28:23.370Z,64.95
2022-12-24T13:33:48.899Z,65.07
2022-12-24T13:38:55.303Z,65.71
2022-12-24T13:44:06.779Z,65.51
2022-12-24T13:49:21.886Z,65.79
2022-12-24T13:54:26.214Z,65.88
2022-12-24T13:59:38.979Z,66.22
2022-12-24T14:04:42.448Z,65.77
2022-12-24T14:09:50.323Z,65.84
2022-12-24T14:14:53.794Z,65.78
2022-12-24T14:20:00.246Z,66.49
2022-12-24T14:25:15.204Z,66.49
2022-12-24T14:30:26.002Z,66.39
2022-12-24T14:35:36.356Z,66.38
2022-12-24T14:41:06.864Z,66.42
2022-12-24T14:46:13.007Z,66.36
2022-12-24T14:51:36.392Z,66.16
2022-12-24T14:56:40.133Z,66.36
2022-12-24T15:01:45.608Z,66.00
2022-12-24T15:06:57.418Z,65.84
2022-12-24T15:12:03.857Z,65.87
2022-12-24T15:17:08.831Z,65.93
2022-12-24T15:22:22.818Z,65.80
2022-12-24T15:27:29.138Z,65.83
2022-12-24T15:32:34.835Z,65.45
2022-12-24T15:37:41.936Z,65.87
2022-12-24T15:42:45.836Z,65.69
2022-12-24T15:48:10.147Z,65.90
2022-12-24T15:53:26.208Z,66.06
2022-12-24T15:58:33.933Z,66.23
2022-12-24T16:03:40.154Z,66.43
2022-12-24T16:08:47.528Z,66.76
2022-12-24T16:13:51.822Z,66.68
2022-12-24T16:19:00.302Z,66.88
2022-12-24T16:24:26.599Z,66.78
2022-12-24T16:29:30.053Z,67.09
2022-12-24T16:34:34.596Z,67.46
2022-12-24T16:39:38.459Z,67.73
2022-12-24T16:44:43.975Z,67.49
2022-12-24T16:49:47.597Z,67.66
2022-12-24T16:54:51.253Z,67.59
2022-12-24T16:59:55.793Z,67.94
2022-12-24T17:04:59.366Z,68.08
2022-12-24T17:10:02.940Z,68.02
2022-12-24T17:15:07.398Z,68.30
2022-12-24T17:20:11.383Z,68.56
2022-12-24T17:25:14.941Z,68.53
2022-12-24T17:30:18.674Z,68.76
2022-12-24T17:35:22.066Z,68.92
2022-12-24T17:40:25.895Z,69.07
2022-12-24T17:45:29.293Z,69.02
2022-12-24T17:50:32.486Z,68.59
2022-12-24T17:55:41.460Z,68.67
2022-12-24T18:00:44.806Z,68.49
2022-12-24T18:05:48.014Z,68.07
2022-12-24T18:10:51.304Z,68.03
2022-12-24T18:15:54.466Z,67.86
2022-12-24T18:20:57.713Z,67.79
2022-12-24T18:26:06.023Z,67.92
2022-12-24T18:31:13.809Z,67.83
2022-12-24T18:36:19.523Z,67.81
2022-12-24T18:41:26.314Z,67.70
2022-12-24T18:46:32.328Z,67.40
2022-12-24T18:51:36.070Z,67.37
2022-12-24T18:56:39.486Z,67.53
2022-12-24T19:01:43.089Z,67.61
2022-12-24T19:06:52.640Z,67.66
2022-12-24T19:11:58.135Z,67.62
2022-12-24T19:17:07.562Z,67.67
2022-12-24T19:22:12.033Z,67.72
2022-12-24T19:27:15.613Z,67.74
2022-12-24T19:32:20.442Z,67.88
2022-12-24T19:37:24.243Z,67.85
2022-12-24T19:42:27.807Z,68.20
2022-12-24T19:47:31.377Z,68.13
2022-12-24T19:52:34.916Z,68.43
2022-12-24T19:57:38.547Z,68.40
2022-12-24T20:02:44.087Z,68.55
2022-12-24T20:07:47.827Z,68.70
2022-12-24T20:12:54.472Z,68.76
2022-12-24T20:18:00.129Z,68.80
2022-12-24T20:23:04.455Z,68.79
2022-12-24T20:28:08.363Z,69.22
2022-12-24T20:33:12.796Z,68.89
2022-12-24T20:38:16.533Z,69.07
2022-12-24T20:43:24.252Z,69.17
2022-12-24T20:48:30.418Z,69.19
2022-12-24T20:53:35.637Z,69.70
2022-12-24T20:58:39.924Z,69.68
2022-12-24T21:03:45.450Z,70.00
2022-12-24T21:08:50.958Z,69.91
2022-12-24T21:13:54.772Z,69.49
2022-12-24T21:18:59.064Z,69.48
2022-12-24T21:24:04.651Z,69.37
2022-12-24T21:29:08.204Z,69.35
2022-12-24T21:34:12.199Z,69.17
2022-12-24T21:39:16.596Z,69.27
2022-12-24T21:44:20.171Z,69.14
2022-12-24T21:49:23.903Z,68.57
2022-12-24T21:54:29.238Z,68.65
2022-12-24T21:59:32.780Z,68.51
2022-12-24T22:04:36.409Z,68.00
2022-12-24T22:09:40.645Z,68.17
2022-12-24T22:14:44.361Z,68.15
2022-12-24T22:19:48.904Z,67.99
2022-12-24T22:24:52.589Z,68.20
2022-12-24T22:29:55.940Z,68.44
2022-12-24T22:34:59.195Z,68.02
2022-12-24T22:40:02.609Z,67.99
2022-12-24T22:45:07.583Z,68.23
2022-12-24T22:50:11.754Z,68.09
2022-12-24T22:55:15.680Z,67.98
2022-12-24T23:00:41.664Z,68.12
2022-12-24T23:05:45.703Z,68.25
2022-12-24T23:10:50.143Z,68.66
2022-12-24T23:15:54.461Z,68.66
2022-12-24T23:20:57.876Z,69.08
2022-12-24T23:26:11.496Z,69.27
2022-12-24T23:31:17.034Z,69.64
2022-12-24T23:36:20.973Z,69.58
2022-12-24T23:41:24.478Z,70.25
2022-12-24T23:46:28.104Z,70.62
2022-12-24T23:51:32.302Z,70.66
2022-12-24T23:56:35.910Z,70.92
